createdAt,value
2022-10-29T00:04:08.667Z,1004.69
2022-10-29T00:09:08.608Z,1004.76
2022-10-29T00:14:08.534Z,1004.68
2022-10-29T00:19:08.475Z,1004.66
2022-10-29T00:24:08.403Z,1004.78
2022-10-29T00:29:08.344Z,1004.83
2022-10-29T00:34:08.270Z,1004.80
2022-10-29T00:39:08.211Z,1004.91
2022-10-29T00:44:08.140Z,1004.95
2022-10-29T00:49:08.082Z,1004.97
2022-10-29T00:54:08.007Z,1004.99
2022-10-29T00:59:07.951Z,1004.91
2022-10-29T01:04:07.877Z,1004.87
2022-10-29T01:09:07.817Z,1004.86
2022-10-29T01:14:07.750Z,1004.88
2022-10-29T01:19:07.802Z,1004.92
2022-10-29T01:24:07.611Z,1004.85
2022-10-29T01:29:07.552Z,1004.84
2022-10-29T01:34:07.477Z,1004.93
2022-10-29T01:39:07.418Z,1004.93
2022-10-29T01:44:07.346Z,1005.02
2022-10-29T01:49:07.287Z,1005.04
2022-10-29T01:54:07.214Z,1005.03
2022-10-29T01:59:07.166Z,1005.08
2022-10-29T02:04:07.081Z,1005.05
2022-10-29T02:09:07.024Z,1005.13
2022-10-29T02:14:06.950Z,1005.15
2022-10-29T02:19:07.284Z,1005.18
2022-10-29T02:24:06.820Z,1005.13
2022-10-29T02:29:06.760Z,1005.20
2022-10-29T02:34:06.687Z,1005.20
2022-10-29T02:39:06.627Z,1005.21
2022-10-29T02:44:06.555Z,1005.18
2022-10-29T02:49:06.502Z,1005.15
2022-10-29T02:54:06.430Z,1005.11
2022-10-29T02:59:09.194Z,1005.18
2022-10-29T03:04:06.294Z,1005.19
2022-10-29T03:09:06.236Z,1005.21
2022-10-29T03:14:06.164Z,1005.25
2022-10-29T03:19:06.105Z,1005.20
2022-10-29T03:24:06.032Z,1005.13
2022-10-29T03:29:05.975Z,1005.01
2022-10-29T03:34:05.901Z,1005.04
2022-10-29T03:39:05.855Z,1005.03
2022-10-29T03:44:05.774Z,1005.10
2022-10-29T03:49:05.690Z,1005.09
2022-10-29T03:54:05.629Z,1005.01
2022-10-29T03:59:05.627Z,1005.05
2022-10-29T04:04:05.497Z,1005.10
2022-10-29T04:09:05.429Z,1005.24
2022-10-29T04:14:05.362Z,1005.20
2022-10-29T04:19:05.302Z,1005.31
2022-10-29T04:29:06.192Z,1005.35
2022-10-29T04:34:05.094Z,1005.36
2022-10-29T04:39:05.043Z,1005.38
2022-10-29T04:44:04.959Z,1005.43
2022-10-29T04:49:04.972Z,1005.47
2022-10-29T04:54:04.824Z,1005.42
2022-10-29T04:59:04.765Z,1005.38
2022-10-29T05:04:04.686Z,1005.30
2022-10-29T05:09:04.626Z,1005.32
2022-10-29T05:14:04.550Z,1005.31
2022-10-29T05:19:04.491Z,1005.36
2022-10-29T05:24:04.417Z,1005.23
2022-10-29T05:29:04.384Z,1005.24
2022-10-29T05:34:04.285Z,1005.40
2022-10-29T05:39:04.223Z,1005.39
2022-10-29T05:44:04.148Z,1005.39
2022-10-29T05:49:04.087Z,1005.35
2022-10-29T05:54:04.013Z,1005.32
2022-10-29T05:59:03.951Z,1005.39
2022-10-29T06:04:03.876Z,1005.21
2022-10-29T06:09:03.823Z,1005.23
2022-10-29T06:14:03.741Z,1005.37
2022-10-29T06:19:03.681Z,1005.55
2022-10-29T06:24:03.605Z,1005.58
2022-10-29T06:29:03.545Z,1005.55
2022-10-29T06:34:03.470Z,1005.59
2022-10-29T06:39:03.414Z,1005.44
2022-10-29T06:44:03.340Z,1005.42
2022-10-29T06:49:03.278Z,1005.31
2022-10-29T06:54:03.205Z,1005.45
2022-10-29T06:59:03.143Z,1005.48
2022-10-29T07:04:03.071Z,1005.48
2022-10-29T07:09:03.017Z,1005.48
2022-10-29T07:14:02.939Z,1005.48
2022-10-29T07:19:02.880Z,1005.59
2022-10-29T07:24:02.886Z,1005.47
2022-10-29T07:29:02.752Z,1005.49
2022-10-29T07:34:02.672Z,1005.44
2022-10-29T07:39:02.621Z,1005.35
2022-10-29T07:44:02.548Z,1005.25
2022-10-29T07:49:02.490Z,1005.31
2022-10-29T07:54:02.413Z,1005.30
2022-10-29T07:59:02.360Z,1005.40
2022-10-29T08:04:02.288Z,1005.44
2022-10-29T08:09:02.223Z,1005.44
2022-10-29T08:14:02.152Z,1005.38
2022-10-29T08:19:02.099Z,1005.35
2022-10-29T08:24:02.029Z,1005.18
2022-10-29T08:29:01.967Z,1005.21
2022-10-29T08:34:01.894Z,1005.36
2022-10-29T08:39:01.835Z,1005.29
2022-10-29T08:49:01.704Z,1005.25
2022-10-29T08:54:25.546Z,1005.27
2022-10-29T08:59:02.598Z,1005.29
2022-10-29T09:04:01.502Z,1005.22
2022-10-29T09:09:01.443Z,1005.10
2022-10-29T09:14:01.372Z,1005.08
2022-10-29T09:19:01.400Z,1005.04
2022-10-29T09:24:01.259Z,1005.03
2022-10-29T09:29:01.191Z,1005.07
2022-10-29T09:34:01.950Z,1005.10
2022-10-29T09:39:01.060Z,1005.12
2022-10-29T09:44:00.983Z,1005.12
2022-10-29T09:49:00.957Z,1005.12
2022-10-29T09:54:00.854Z,1005.11
2022-10-29T09:59:00.801Z,1005.13
2022-10-29T10:09:00.681Z,1005.09
2022-10-29T10:14:00.604Z,1005.09
2022-10-29T10:19:00.542Z,1004.81
2022-10-29T10:24:00.578Z,1004.86
2022-10-29T10:29:00.413Z,1004.69
2022-10-29T10:34:00.340Z,1004.73
2022-10-29T10:39:00.280Z,1004.61
2022-10-29T10:44:00.209Z,1004.53
2022-10-29T10:49:00.148Z,1004.61
2022-10-29T10:54:00.128Z,1004.66
2022-10-29T10:59:00.019Z,1004.69
2022-10-29T11:03:59.946Z,1004.66
2022-10-29T11:08:59.888Z,1004.63
2022-10-29T11:13:59.812Z,1004.67
2022-10-29T11:18:59.754Z,1004.66
2022-10-29T11:23:59.682Z,1004.58
2022-10-29T11:28:59.627Z,1004.54
2022-10-29T11:33:59.553Z,1004.49
2022-10-29T11:38:59.498Z,1004.45
2022-10-29T11:43:59.424Z,1004.38
2022-10-29T11:48:59.365Z,1004.27
2022-10-29T11:53:59.294Z,1004.20
2022-10-29T11:58:59.236Z,1004.11
2022-10-29T12:03:59.285Z,1004.04
2022-10-29T12:08:59.110Z,1004.02
2022-10-29T12:13:59.036Z,1003.95
2022-10-29T12:18:58.974Z,1003.86
2022-10-29T12:23:58.900Z,1003.83
2022-10-29T12:28:58.843Z,1003.75
2022-10-29T12:33:58.771Z,1003.70
2022-10-29T12:38:58.713Z,1003.62
2022-10-29T12:43:58.641Z,1003.56
2022-10-29T12:48:58.583Z,1003.56
2022-10-29T12:53:58.522Z,1003.52
2022-10-29T12:58:58.452Z,1003.51
2022-10-29T13:03:58.380Z,1003.44
2022-10-29T13:08:58.321Z,1003.43
2022-10-29T13:13:58.251Z,1003.43
2022-10-29T13:18:58.190Z,1003.39
2022-10-29T13:23:58.120Z,1003.37
2022-10-29T13:28:58.062Z,1003.32
2022-10-29T13:33:58.000Z,1003.29
2022-10-29T13:39:05.893Z,1003.28
2022-10-29T13:43:57.870Z,1003.26
2022-10-29T13:48:57.795Z,1003.24
2022-10-29T13:53:57.738Z,1003.21
2022-10-29T13:58:57.667Z,1003.21
2022-10-29T14:03:57.652Z,1003.15
2022-10-29T14:08:57.541Z,1003.17
2022-10-29T14:13:57.478Z,1003.09
2022-10-29T14:18:57.409Z,1003.01
2022-10-29T14:23:57.350Z,1003.06
2022-10-29T14:28:57.276Z,1003.11
2022-10-29T14:33:57.223Z,1003.12
2022-10-29T14:38:57.152Z,1003.18
2022-10-29T14:43:57.090Z,1003.17
2022-10-29T14:48:57.019Z,1003.24
2022-10-29T14:53:56.963Z,1003.25
2022-10-29T14:58:56.887Z,1003.23
2022-10-29T15:03:56.832Z,1003.15
2022-10-29T15:08:56.756Z,1003.16
2022-10-29T15:13:56.701Z,1003.18
2022-10-29T15:18:56.631Z,1003.13
2022-10-29T15:23:56.572Z,1003.15
2022-10-29T15:28:56.498Z,1003.16
2022-10-29T15:33:56.441Z,1003.15
2022-10-29T15:38:56.375Z,1003.11
2022-10-29T15:43:56.312Z,1003.18
2022-10-29T15:48:56.241Z,1003.16
2022-10-29T15:53:56.207Z,1003.14
2022-10-29T15:58:56.109Z,1003.15
2022-10-29T16:03:56.050Z,1003.22
2022-10-29T16:08:55.978Z,1003.21
2022-10-29T16:13:55.920Z,1003.22
2022-10-29T16:18:55.844Z,1003.25
2022-10-29T16:23:55.787Z,1003.21
2022-10-29T16:28:55.710Z,1003.26
2022-10-29T16:33:55.653Z,1003.23
2022-10-29T16:38:55.574Z,1003.34
2022-10-29T16:43:55.516Z,1003.40
2022-10-29T16:48:55.439Z,1003.34
2022-10-29T16:53:55.381Z,1003.23
2022-10-29T16:58:59.290Z,1003.22
2022-10-29T17:03:55.311Z,1003.24
2022-10-29T17:08:55.178Z,1003.27
2022-10-29T17:13:55.123Z,1003.37
2022-10-29T17:18:55.049Z,1003.41
2022-10-29T17:23:54.991Z,1003.42
2022-10-29T17:28:54.926Z,1003.46
2022-10-29T17:33:54.876Z,1003.45
2022-10-29T17:38:54.793Z,1003.45
2022-10-29T17:43:54.740Z,1003.42
2022-10-29T17:48:54.669Z,1003.48
2022-10-29T17:53:54.613Z,1003.40
2022-10-29T17:58:54.544Z,1003.43
2022-10-29T18:03:54.488Z,1003.40
2022-10-29T18:08:54.415Z,1003.47
2022-10-29T18:13:54.356Z,1003.45
2022-10-29T18:19:01.172Z,1003.48
2022-10-29T18:23:54.226Z,1003.46
2022-10-29T18:28:54.152Z,1003.55
2022-10-29T18:33:54.095Z,1003.46
2022-10-29T18:38:54.020Z,1003.38
2022-10-29T18:43:53.999Z,1003.47
2022-10-29T18:48:53.889Z,1003.40
2022-10-29T18:53:53.830Z,1003.38
2022-10-29T18:58:53.760Z,1003.47
2022-10-29T19:03:53.697Z,1003.47
2022-10-29T19:08:53.625Z,1003.38
2022-10-29T19:13:53.564Z,1003.36
2022-10-29T19:18:53.600Z,1003.31
2022-10-29T19:23:53.433Z,1003.26
2022-10-29T19:28:53.368Z,1003.21
2022-10-29T19:33:53.303Z,1003.19
2022-10-29T19:38:53.228Z,1003.15
2022-10-29T19:43:53.168Z,1003.12
2022-10-29T19:48:53.097Z,1003.14
2022-10-29T19:53:53.035Z,1003.18
2022-10-29T19:58:52.963Z,1003.21
2022-10-29T20:03:52.905Z,1003.32
2022-10-29T20:08:52.835Z,1003.37
2022-10-29T20:13:52.772Z,1003.37
2022-10-29T20:18:52.701Z,1003.44
2022-10-29T20:23:52.640Z,1003.41
2022-10-29T20:28:52.568Z,1003.36
2022-10-29T20:33:52.512Z,1003.33
2022-10-29T20:38:52.438Z,1003.37
2022-10-29T20:43:52.376Z,1003.35
2022-10-29T20:48:52.306Z,1003.40
2022-10-29T20:53:52.247Z,1003.40
2022-10-29T20:58:52.173Z,1003.37
2022-10-29T21:03:52.118Z,1003.36
2022-10-29T21:08:52.048Z,1003.32
2022-10-29T21:13:51.983Z,1003.27
2022-10-29T21:18:51.913Z,1003.24
2022-10-29T21:23:51.854Z,1003.24
2022-10-29T21:28:51.782Z,1003.17
2022-10-29T21:33:51.724Z,1003.19
2022-10-29T21:38:51.651Z,1003.12
2022-10-29T21:43:51.597Z,1003.08
2022-10-29T21:48:51.520Z,1003.17
2022-10-29T21:53:51.468Z,1003.18
2022-10-29T21:58:51.388Z,1003.08
2022-10-29T22:03:51.333Z,1003.07
2022-10-29T22:08:51.259Z,1003.06
2022-10-29T22:13:51.204Z,1003.07
2022-10-29T22:18:51.211Z,1003.01
2022-10-29T22:23:51.074Z,1002.99
2022-10-29T22:28:50.999Z,1003.01
2022-10-29T22:33:50.945Z,1002.96
2022-10-29T22:38:50.870Z,1002.98
2022-10-29T22:43:50.817Z,1002.95
2022-10-29T22:48:50.742Z,1002.92
2022-10-29T22:53:50.681Z,1002.95
2022-10-29T22:58:50.611Z,1002.86
2022-10-29T23:03:50.551Z,1002.87
2022-10-29T23:08:50.480Z,1002.85
2022-10-29T23:13:50.422Z,1002.92
2022-10-29T23:18:50.355Z,1002.91
2022-10-29T23:23:50.291Z,1002.96
2022-10-29T23:28:50.218Z,1002.94
2022-10-29T23:33:50.162Z,1002.87
2022-10-29T23:38:50.088Z,1002.76
2022-10-29T23:43:50.028Z,1002.59
2022-10-29T23:48:49.952Z,1002.55
2022-10-29T23:53:53.129Z,1002.50
2022-10-29T23:58:49.815Z,1002.44
